createdAt,value
2023-04-19T05:44:51.067Z,100.00
2023-04-19T05:54:14.715Z,100.00
2023-04-19T05:56:45.092Z,100.00
2023-04-19T05:59:14.277Z,100.00
2023-04-19T06:01:41.451Z,100.00
2023-04-19T06:04:08.715Z,100.00
2023-04-19T06:06:38.257Z,100.00
2023-04-19T06:09:07.290Z,100.00
2023-04-19T06:11:42.987Z,100.00
2023-04-19T06:14:17.303Z,100.00
2023-04-19T06:16:45.078Z,100.00
2023-04-19T06:19:12.082Z,100.00
2023-04-19T06:21:39.037Z,100.00
2023-04-19T06:24:07.634Z,100.00
2023-04-19T06:26:34.790Z,100.00
2023-04-19T06:29:01.836Z,100.00
2023-04-19T06:31:28.999Z,100.00
2023-04-19T06:33:56.068Z,100.00
2023-04-19T06:36:23.131Z,100.00
2023-04-19T06:38:50.503Z,100.00
2023-04-19T06:41:18.072Z,100.00
2023-04-19T06:43:45.157Z,100.00
2023-04-19T06:46:14.347Z,100.00
2023-04-19T06:48:41.372Z,100.00
2023-04-19T06:51:08.483Z,100.00
2023-04-19T06:53:35.945Z,100.00
2023-04-19T06:56:06.626Z,100.00
2023-04-19T06:58:35.207Z,100.00
2023-04-19T07:01:04.887Z,100.00
2023-04-19T07:03:32.581Z,100.00
2023-04-19T07:05:59.822Z,100.00
2023-04-19T07:08:34.952Z,100.00
2023-04-19T07:11:09.678Z,100.00
2023-04-19T07:13:36.622Z,100.00
2023-04-19T07:16:07.729Z,100.00
2023-04-19T07:18:34.739Z,100.00
2023-04-19T07:21:01.846Z,100.00
2023-04-19T07:23:28.799Z,100.00
2023-04-19T07:25:55.699Z,100.00
2023-04-19T07:28:22.718Z,100.00
2023-04-19T07:30:49.652Z,100.00
2023-04-19T07:33:17.211Z,100.00
2023-04-19T07:35:44.204Z,100.00
2023-04-19T07:38:11.111Z,99.51
2023-04-19T07:40:38.130Z,98.81
2023-04-19T07:43:05.186Z,97.98
2023-04-19T07:45:32.125Z,97.82
2023-04-19T07:47:59.163Z,97.21
2023-04-19T07:50:27.305Z,97.35
2023-04-19T07:52:54.910Z,98.02
2023-04-19T07:55:21.910Z,97.71
2023-04-19T07:57:50.079Z,97.25
2023-04-19T08:00:18.553Z,96.99
2023-04-19T08:02:46.565Z,96.16
2023-04-19T08:05:17.936Z,94.44
2023-04-19T08:07:45.266Z,94.03
2023-04-19T08:10:12.950Z,93.87
2023-04-19T08:12:53.621Z,94.41
2023-04-19T08:16:15.018Z,93.48
2023-04-19T08:18:15.385Z,93.53
2023-04-19T08:20:46.701Z,93.08
2023-04-19T08:23:21.379Z,92.85
2023-04-19T08:25:53.183Z,92.69
2023-04-19T08:28:20.193Z,92.83
2023-04-19T08:30:47.161Z,92.59
2023-04-19T08:33:14.161Z,92.85
2023-04-19T08:35:41.977Z,91.70
2023-04-19T08:38:09.954Z,90.53
2023-04-19T08:40:46.494Z,89.66
2023-04-19T08:43:13.751Z,88.87
2023-04-19T08:45:41.346Z,89.55
2023-04-19T08:48:11.980Z,90.23
2023-04-19T08:50:55.875Z,90.58
2023-04-19T08:53:33.478Z,90.06
2023-04-19T08:56:10.727Z,90.27
2023-04-19T09:01:22.530Z,88.43
2023-04-19T09:04:04.952Z,87.76
2023-04-19T09:06:41.482Z,87.25
2023-04-19T09:09:35.593Z,87.38
2023-04-19T09:12:17.048Z,83.62
2023-04-19T09:17:18.173Z,82.17
2023-04-19T09:19:51.376Z,81.70
2023-04-19T09:22:19.073Z,80.75
2023-04-19T09:27:25.844Z,79.93
2023-04-19T09:29:58.215Z,78.67
2023-04-19T09:32:26.122Z,78.78
2023-04-19T09:35:00.655Z,76.96
2023-04-19T09:37:51.585Z,75.53
2023-04-19T09:40:25.699Z,73.48
2023-04-19T09:48:04.307Z,72.31
2023-04-19T09:50:32.229Z,71.90
2023-04-19T09:53:01.430Z,72.05
2023-04-19T09:55:29.859Z,70.93
2023-04-19T09:57:58.721Z,70.74
2023-04-19T10:00:26.218Z,69.84
2023-04-19T10:02:58.772Z,70.83
2023-04-19T10:05:26.715Z,71.39
2023-04-19T10:07:59.599Z,71.05
2023-04-19T10:10:41.310Z,69.81
2023-04-19T10:13:19.956Z,69.88
2023-04-19T10:15:52.518Z,69.98
2023-04-19T10:18:23.456Z,67.96
2023-04-19T10:20:57.049Z,68.37
2023-04-19T10:23:24.881Z,65.73
2023-04-19T10:25:57.946Z,64.33
2023-04-19T10:28:25.255Z,63.19
2023-04-19T10:31:02.801Z,63.93
2023-04-19T10:33:35.022Z,63.84
2023-04-19T10:36:02.356Z,62.65
2023-04-19T10:38:47.405Z,63.28
2023-04-19T10:41:19.084Z,61.91
2023-04-19T10:43:55.459Z,61.37
2023-04-19T10:46:22.617Z,59.69
2023-04-19T10:49:00.402Z,61.36
2023-04-19T10:51:30.498Z,61.17
2023-04-19T10:54:10.333Z,60.79
2023-04-19T10:56:38.372Z,60.45
2023-04-19T10:59:08.613Z,59.07
2023-04-19T11:01:40.346Z,58.22
2023-04-19T11:04:12.034Z,56.32
2023-04-19T11:07:04.523Z,56.20
2023-04-19T11:09:31.747Z,55.95
2023-04-19T11:12:05.874Z,55.49
2023-04-19T11:14:36.573Z,54.49
2023-04-19T11:17:16.807Z,52.84
2023-04-19T11:20:03.299Z,52.98
2023-04-19T11:22:41.011Z,51.32
2023-04-19T11:25:22.309Z,48.15
2023-04-19T11:27:52.473Z,49.01
2023-04-19T11:30:28.540Z,49.12
2023-04-19T11:32:57.732Z,49.03
2023-04-19T11:35:30.792Z,47.08
2023-04-19T11:37:59.499Z,48.77
2023-04-19T11:40:27.500Z,47.86
2023-04-19T11:42:56.989Z,47.20
2023-04-19T11:45:36.614Z,47.00
2023-04-19T11:48:07.767Z,48.06
2023-04-19T11:50:43.441Z,47.32
2023-04-19T11:53:24.540Z,47.64
2023-04-19T11:55:54.023Z,46.85
2023-04-19T11:58:29.789Z,45.17
2023-04-19T12:01:01.077Z,47.30
2023-04-19T12:03:28.371Z,45.45
2023-04-19T12:06:00.975Z,44.82
2023-04-19T12:08:39.313Z,43.81
2023-04-19T12:11:07.100Z,43.49
2023-04-19T12:13:35.193Z,43.83
2023-04-19T12:16:02.856Z,44.07
2023-04-19T12:18:46.741Z,43.14
2023-04-19T12:21:33.338Z,42.52
2023-04-19T12:24:02.038Z,43.57
2023-04-19T12:26:30.762Z,44.20
2023-04-19T12:29:03.672Z,45.09
2023-04-19T12:31:33.909Z,45.10
2023-04-19T12:34:01.262Z,46.08
2023-04-19T12:36:28.665Z,46.40
2023-04-19T12:38:56.090Z,46.84
2023-04-19T12:41:24.408Z,47.66
2023-04-19T12:43:51.532Z,47.59
2023-04-19T12:46:19.674Z,48.05
2023-04-19T12:48:46.793Z,47.45
2023-04-19T12:51:13.730Z,48.01
2023-04-19T12:53:42.649Z,49.26
2023-04-19T12:56:16.171Z,50.24
2023-04-19T12:58:43.369Z,51.60
2023-04-19T13:01:11.344Z,53.82
2023-04-19T13:03:38.530Z,55.65
2023-04-19T13:06:06.233Z,57.26
2023-04-19T13:08:43.240Z,59.39
2023-04-19T13:11:12.920Z,60.92
2023-04-19T13:13:42.421Z,61.36
2023-04-19T13:16:09.479Z,62.87
2023-04-19T13:18:36.398Z,63.88
2023-04-19T13:21:03.383Z,63.91
2023-04-19T13:23:30.403Z,66.13
2023-04-19T13:25:57.327Z,65.48
2023-04-19T13:28:24.262Z,64.00
2023-04-19T13:30:51.575Z,63.44
2023-04-19T13:33:18.586Z,64.36
2023-04-19T13:35:46.377Z,65.28
2023-04-19T13:38:13.427Z,64.37
2023-04-19T13:40:40.487Z,66.08
2023-04-19T13:43:07.436Z,67.12
2023-04-19T13:45:34.366Z,67.04
2023-04-19T13:48:01.335Z,65.81
2023-04-19T13:50:29.851Z,64.48
2023-04-19T13:52:56.895Z,64.82
2023-04-19T13:55:23.887Z,66.19
2023-04-19T13:57:51.328Z,64.35
2023-04-19T14:00:19.141Z,63.32
2023-04-19T14:02:46.418Z,63.58
2023-04-19T14:05:13.424Z,63.27
2023-04-19T14:07:40.956Z,64.20
2023-04-19T14:10:09.897Z,63.10
2023-04-19T14:12:36.966Z,62.01
2023-04-19T14:15:04.514Z,61.94
2023-04-19T14:17:31.710Z,63.08
2023-04-19T14:19:58.618Z,64.40
2023-04-19T14:22:25.568Z,63.87
2023-04-19T14:24:58.771Z,64.24
2023-04-19T14:27:32.546Z,63.81
2023-04-19T14:29:59.553Z,63.32
2023-04-19T14:32:27.443Z,64.04
2023-04-19T14:34:56.234Z,64.64
2023-04-19T14:37:24.591Z,65.03
2023-04-19T14:39:51.933Z,64.36
2023-04-19T14:42:22.299Z,65.50
2023-04-19T14:44:53.123Z,65.49
2023-04-19T14:47:21.457Z,66.73
2023-04-19T14:49:48.778Z,67.25
2023-04-19T14:52:16.080Z,68.45
2023-04-19T14:54:43.543Z,72.26
2023-04-19T14:57:10.596Z,72.73
2023-04-19T14:59:37.704Z,79.67
2023-04-19T15:02:04.790Z,82.39
2023-04-19T15:04:37.402Z,81.47
2023-04-19T15:07:06.845Z,80.28
2023-04-19T15:09:33.806Z,82.79
2023-04-19T15:12:01.557Z,79.35
2023-04-19T15:14:28.453Z,80.17
2023-04-19T15:16:55.737Z,82.68
2023-04-19T15:19:22.750Z,84.97
2023-04-19T15:21:49.721Z,86.86
2023-04-19T15:24:16.722Z,90.46
2023-04-19T15:26:44.582Z,87.44
2023-04-19T15:29:11.713Z,88.01
2023-04-19T15:31:38.939Z,88.17
2023-04-19T15:34:06.006Z,90.43
2023-04-19T15:36:32.950Z,90.63
2023-04-19T15:39:00.099Z,90.60
2023-04-19T15:41:27.117Z,89.03
2023-04-19T15:43:54.167Z,87.51
2023-04-19T15:46:21.168Z,88.09
2023-04-19T15:48:48.787Z,84.79
2023-04-19T15:51:16.323Z,85.36
2023-04-19T15:53:43.404Z,85.87
2023-04-19T15:56:10.835Z,84.69
2023-04-19T15:58:38.201Z,83.89
2023-04-19T16:01:08.760Z,84.04
2023-04-19T16:03:35.963Z,83.43
2023-04-19T16:06:02.998Z,84.35
2023-04-19T16:08:30.002Z,84.77
2023-04-19T16:10:56.894Z,84.35
2023-04-19T16:13:23.996Z,82.73
2023-04-19T16:15:51.224Z,82.01
2023-04-19T16:18:18.160Z,81.22
2023-04-19T16:20:45.181Z,79.15
2023-04-19T16:23:14.769Z,80.54
2023-04-19T16:25:41.726Z,79.54
2023-04-19T16:28:08.675Z,79.08
2023-04-19T16:30:35.777Z,80.47
2023-04-19T16:33:02.776Z,82.77
2023-04-19T16:35:30.003Z,82.85
2023-04-19T16:37:57.805Z,82.37
2023-04-19T16:40:24.919Z,84.22
2023-04-19T16:42:52.011Z,83.95
2023-04-19T16:45:19.145Z,84.03
